Terminal Aerodrome Forecast
Issued by NWS

Home | Current Version | Previous Version | Text Only | Print | Product List | Glossary On
Versions: 1 2 3 4 5 6 7 8 9 10 11 12
000
FTUS46 KPDT 172300
TAFPSC
TAF
KPSC 172323Z 1800/1824 VRB05KT P6SM SCT150 BKN200
     FM180300 23004KT P6SM SCT150 OVC200
     FM181200 23004KT P6SM SCT100 BKN150
     FM181900 23008KT P6SM SCT100=

USA.gov is the U.S. government's official web portal to all federal, state and local government web resources and services.